createdAt,value
2018-03-01T00:00:02.595Z,48.99
2018-03-01T00:02:33.619Z,49.83
2018-03-01T00:05:04.623Z,50.02
2018-03-01T00:07:35.643Z,49.46
2018-03-01T00:10:06.663Z,50.08
2018-03-01T00:12:37.700Z,50.30
2018-03-01T00:15:08.716Z,50.62
2018-03-01T00:17:39.759Z,50.26
2018-03-01T00:20:10.769Z,50.91
2018-03-01T00:22:41.796Z,51.06
2018-03-01T00:25:12.817Z,50.40
2018-03-01T00:27:43.846Z,50.89
2018-03-01T00:30:14.868Z,50.93
2018-03-01T00:32:46.822Z,50.68
2018-03-01T00:35:17.856Z,50.62
2018-03-01T00:37:48.880Z,50.22
2018-03-01T00:40:20.733Z,49.95
2018-03-01T00:42:51.770Z,50.14
2018-03-01T00:45:22.802Z,50.03
2018-03-01T00:47:53.829Z,50.47
2018-03-01T00:50:24.864Z,51.03
2018-03-01T00:52:55.855Z,50.82
2018-03-01T00:55:26.877Z,50.87
2018-03-01T00:57:57.902Z,51.60
2018-03-01T01:00:28.944Z,51.46
2018-03-01T01:02:59.927Z,51.54
2018-03-01T01:05:30.959Z,51.56
2018-03-01T01:08:01.964Z,51.33
2018-03-01T01:10:33.068Z,51.48
2018-03-01T01:13:04.053Z,52.04
2018-03-01T01:15:35.091Z,51.63
2018-03-01T01:18:06.080Z,51.50
2018-03-01T01:20:37.133Z,51.37
2018-03-01T01:23:08.202Z,51.61
2018-03-01T01:25:39.208Z,51.74
2018-03-01T01:28:10.225Z,52.24
2018-03-01T01:30:41.234Z,51.67
2018-03-01T01:33:12.261Z,51.55
2018-03-01T01:35:43.287Z,51.31
2018-03-01T01:38:14.305Z,51.53
2018-03-01T01:40:45.323Z,51.39
2018-03-01T01:43:16.311Z,51.58
2018-03-01T01:45:47.361Z,51.55
2018-03-01T01:48:18.382Z,51.15
2018-03-01T01:51:03.693Z,51.60
2018-03-01T01:53:34.695Z,51.22
2018-03-01T01:56:05.738Z,51.41
2018-03-01T01:58:36.781Z,51.51
2018-03-01T02:01:07.808Z,50.77
2018-03-01T02:03:38.848Z,50.51
2018-03-01T02:06:09.844Z,50.08
2018-03-01T02:08:40.890Z,49.77
2018-03-01T02:11:11.925Z,49.51
2018-03-01T02:13:42.944Z,49.85
2018-03-01T02:16:13.963Z,50.06
2018-03-01T02:18:44.931Z,49.84
2018-03-01T02:21:15.974Z,50.15
2018-03-01T02:23:46.952Z,49.97
2018-03-01T02:26:17.931Z,49.54
2018-03-01T02:28:48.913Z,50.22
2018-03-01T02:31:19.923Z,49.90
2018-03-01T02:33:50.910Z,49.78
2018-03-01T02:36:32.029Z,49.55
2018-03-01T02:39:03.127Z,49.52
2018-03-01T02:41:34.173Z,49.53
2018-03-01T02:44:05.182Z,49.67
2018-03-01T02:46:36.182Z,48.83
2018-03-01T02:49:07.209Z,49.41
2018-03-01T02:51:38.181Z,49.36
2018-03-01T02:54:09.172Z,49.50
2018-03-01T02:56:40.128Z,49.42
2018-03-01T02:59:11.089Z,48.94
2018-03-01T03:01:42.064Z,49.29
2018-03-01T03:04:13.058Z,49.16
2018-03-01T03:06:44.057Z,48.75
2018-03-01T03:09:15.082Z,48.65
2018-03-01T03:11:46.087Z,48.41
2018-03-01T03:14:17.053Z,48.45
2018-03-01T03:16:48.051Z,48.81
2018-03-01T03:19:19.080Z,48.77
2018-03-01T03:21:50.080Z,49.49
2018-03-01T03:24:21.086Z,49.21
2018-03-01T03:26:52.100Z,49.10
2018-03-01T03:29:23.115Z,49.31
2018-03-01T03:31:54.150Z,49.06
2018-03-01T03:34:25.147Z,48.49
2018-03-01T03:36:56.172Z,48.50
2018-03-01T03:39:27.134Z,48.72
2018-03-01T03:41:58.133Z,49.27
2018-03-01T03:44:29.122Z,48.71
2018-03-01T03:47:00.129Z,48.50
2018-03-01T03:49:31.161Z,48.89
2018-03-01T03:52:02.167Z,48.62
2018-03-01T03:54:33.162Z,48.85
2018-03-01T03:57:04.145Z,48.44
2018-03-01T03:59:35.176Z,48.71
2018-03-01T04:02:06.150Z,48.30
2018-03-01T04:04:37.175Z,48.92
2018-03-01T04:07:08.121Z,48.42
2018-03-01T04:09:39.164Z,48.69
2018-03-01T04:12:10.137Z,48.96
2018-03-01T04:14:41.141Z,48.24
2018-03-01T04:17:12.119Z,48.62
2018-03-01T04:19:43.168Z,48.77
2018-03-01T04:22:14.185Z,48.92
2018-03-01T04:24:45.171Z,48.32
2018-03-01T04:27:16.145Z,48.34
2018-03-01T04:29:47.182Z,48.63
2018-03-01T04:32:18.153Z,49.41
2018-03-01T04:34:49.124Z,48.99
2018-03-01T04:37:20.160Z,48.36
2018-03-01T04:39:51.211Z,48.72
2018-03-01T04:42:22.158Z,48.47
2018-03-01T04:44:53.127Z,47.60
2018-03-01T04:47:24.135Z,48.22
2018-03-01T04:49:55.142Z,47.83
2018-03-01T04:52:26.143Z,47.32
2018-03-01T04:54:57.118Z,47.66
2018-03-01T04:57:28.115Z,47.40
2018-03-01T04:59:59.245Z,47.74
2018-03-01T05:02:30.228Z,47.35
2018-03-01T05:05:01.222Z,47.81
2018-03-01T05:07:32.243Z,47.76
2018-03-01T05:10:03.234Z,48.34
2018-03-01T05:12:34.238Z,48.07
2018-03-01T05:15:05.205Z,48.57
2018-03-01T05:17:36.229Z,48.48
2018-03-01T05:20:07.240Z,48.20
2018-03-01T05:22:38.201Z,48.73
2018-03-01T05:25:09.228Z,47.92
2018-03-01T05:27:40.259Z,48.21
2018-03-01T05:30:11.261Z,47.95
2018-03-01T05:32:42.227Z,47.87
2018-03-01T05:35:13.548Z,48.04
2018-03-01T05:37:44.560Z,48.21
2018-03-01T05:40:15.560Z,48.36
2018-03-01T05:42:46.545Z,48.85
2018-03-01T05:45:17.526Z,48.25
2018-03-01T05:47:48.549Z,48.71
2018-03-01T05:50:19.543Z,48.50
2018-03-01T05:52:50.546Z,48.73
2018-03-01T05:55:21.536Z,48.42
2018-03-01T05:57:52.573Z,48.49
2018-03-01T06:00:23.556Z,48.43
2018-03-01T06:02:54.532Z,48.43
2018-03-01T06:05:25.500Z,48.46
2018-03-01T06:07:56.537Z,48.46
2018-03-01T06:10:27.518Z,48.00
2018-03-01T06:12:58.556Z,48.39
2018-03-01T06:15:29.593Z,47.80
2018-03-01T06:18:07.371Z,47.74
2018-03-01T06:20:38.364Z,47.97
2018-03-01T06:23:09.413Z,48.35
2018-03-01T06:25:40.428Z,47.95
2018-03-01T06:28:11.443Z,47.49
2018-03-01T06:30:42.441Z,46.61
2018-03-01T06:33:13.444Z,47.19
2018-03-01T06:35:44.411Z,46.91
2018-03-01T06:38:15.423Z,47.21
2018-03-01T06:40:46.372Z,46.60
2018-03-01T06:43:17.337Z,46.54
2018-03-01T06:45:48.292Z,46.33
2018-03-01T06:48:20.334Z,46.18
2018-03-01T06:50:51.351Z,45.30
2018-03-01T06:53:22.364Z,45.00
2018-03-01T06:55:53.389Z,44.64
2018-03-01T06:58:24.392Z,44.87
2018-03-01T07:00:55.390Z,44.76
2018-03-01T07:03:26.429Z,44.56
2018-03-01T07:05:57.418Z,43.90
2018-03-01T07:08:28.424Z,44.42
2018-03-01T07:10:59.392Z,43.90
2018-03-01T07:13:30.384Z,44.22
2018-03-01T07:16:01.424Z,43.16
2018-03-01T07:18:32.413Z,42.89
2018-03-01T07:21:03.432Z,42.25
2018-03-01T07:23:34.440Z,41.55
2018-03-01T07:26:05.493Z,40.94
2018-03-01T07:28:36.494Z,40.86
2018-03-01T07:31:07.476Z,40.53
2018-03-01T07:33:38.487Z,40.81
2018-03-01T07:36:09.520Z,40.35
2018-03-01T07:38:40.546Z,39.95
2018-03-01T07:41:11.521Z,39.30
2018-03-01T07:43:42.522Z,39.78
2018-03-01T07:46:13.526Z,39.98
2018-03-01T07:48:44.520Z,39.74
2018-03-01T07:51:15.496Z,39.22
2018-03-01T07:53:46.537Z,39.44
2018-03-01T07:56:17.513Z,39.53
2018-03-01T07:58:48.531Z,38.89
2018-03-01T08:01:19.565Z,38.39
2018-03-01T08:03:50.560Z,38.41
2018-03-01T08:06:21.558Z,38.16
2018-03-01T08:08:52.658Z,37.67
2018-03-01T08:11:23.613Z,37.45
2018-03-01T08:13:54.638Z,37.42
2018-03-01T08:16:25.674Z,38.12
2018-03-01T08:18:56.757Z,38.13
2018-03-01T08:21:27.736Z,37.89
2018-03-01T08:23:58.759Z,37.53
2018-03-01T08:26:29.785Z,37.89
2018-03-01T08:29:00.792Z,37.90
2018-03-01T08:31:31.865Z,38.49
2018-03-01T08:34:02.862Z,39.04
2018-03-01T08:36:33.911Z,38.35
2018-03-01T08:39:04.899Z,38.88
2018-03-01T08:41:35.873Z,38.44
2018-03-01T08:44:06.898Z,38.33
2018-03-01T08:46:37.873Z,37.98
2018-03-01T08:49:08.910Z,37.58
2018-03-01T08:51:39.907Z,37.31
2018-03-01T08:54:10.927Z,37.05
2018-03-01T08:56:41.916Z,36.07
2018-03-01T08:59:12.922Z,36.03
2018-03-01T09:01:43.890Z,33.90
2018-03-01T09:04:14.922Z,34.94
2018-03-01T09:06:45.922Z,34.84
2018-03-01T09:09:16.903Z,33.34
2018-03-01T09:11:47.937Z,32.77
2018-03-01T09:14:19.148Z,31.49
2018-03-01T09:16:50.236Z,31.16
2018-03-01T09:19:21.242Z,30.23
2018-03-01T09:21:52.272Z,30.38
2018-03-01T09:24:23.273Z,30.14
2018-03-01T09:26:54.243Z,30.07
2018-03-01T09:29:25.247Z,30.39
2018-03-01T09:31:56.264Z,29.09
2018-03-01T09:34:27.248Z,26.69
2018-03-01T09:36:58.269Z,25.00
2018-03-01T09:39:29.227Z,23.99
2018-03-01T09:42:00.232Z,23.03
2018-03-01T09:44:31.266Z,22.37
2018-03-01T09:47:02.280Z,21.97
2018-03-01T09:49:33.258Z,21.36
2018-03-01T09:52:04.253Z,21.82
2018-03-01T09:54:35.251Z,22.45
2018-03-01T09:57:06.231Z,22.45
2018-03-01T09:59:37.196Z,22.50
2018-03-01T10:02:08.200Z,23.06
2018-03-01T10:04:39.213Z,23.41
2018-03-01T10:07:10.246Z,21.92
2018-03-01T10:09:41.270Z,22.10
2018-03-01T10:12:12.242Z,21.21
2018-03-01T10:14:43.258Z,20.61
2018-03-01T10:17:14.256Z,19.75
2018-03-01T10:19:45.697Z,19.08
2018-03-01T10:22:16.724Z,18.52
2018-03-01T10:24:47.682Z,18.31
2018-03-01T10:27:18.702Z,16.76
2018-03-01T10:29:49.701Z,16.25
2018-03-01T10:32:20.708Z,16.27
2018-03-01T10:34:51.717Z,17.46
2018-03-01T10:37:22.695Z,18.11
2018-03-01T10:39:53.705Z,17.33
2018-03-01T10:42:24.691Z,16.24
2018-03-01T10:44:55.751Z,16.29
2018-03-01T10:47:26.679Z,16.55
2018-03-01T10:49:57.645Z,16.41
2018-03-01T10:52:28.604Z,15.84
2018-03-01T10:54:59.605Z,15.77
2018-03-01T10:57:30.602Z,16.24
2018-03-01T11:00:01.600Z,16.55
2018-03-01T11:02:32.674Z,15.97
2018-03-01T11:05:03.651Z,16.25
2018-03-01T11:07:34.633Z,16.79
2018-03-01T11:10:05.709Z,16.47
2018-03-01T11:12:36.740Z,16.24
2018-03-01T11:15:07.715Z,17.11
2018-03-01T11:17:38.756Z,18.45
2018-03-01T11:20:09.804Z,18.19
2018-03-01T11:22:40.763Z,18.32
2018-03-01T11:25:11.757Z,18.22
2018-03-01T11:27:42.770Z,17.82
2018-03-01T11:30:13.784Z,17.98
2018-03-01T11:32:44.764Z,19.31
2018-03-01T11:35:15.866Z,20.27
2018-03-01T11:37:46.878Z,21.22
2018-03-01T11:40:17.890Z,21.93
2018-03-01T11:42:48.892Z,22.87
2018-03-01T11:45:19.878Z,23.66
2018-03-01T11:47:50.889Z,25.12
2018-03-01T11:50:21.925Z,24.73
2018-03-01T11:52:52.924Z,24.70
2018-03-01T11:55:23.947Z,25.21
2018-03-01T11:57:55.001Z,25.75
2018-03-01T12:00:25.971Z,26.03
2018-03-01T12:02:56.990Z,25.11
2018-03-01T12:05:27.960Z,25.50
2018-03-01T12:07:58.933Z,24.44
2018-03-01T12:10:29.951Z,23.12
2018-03-01T12:13:00.927Z,22.40
2018-03-01T12:15:31.888Z,22.56
2018-03-01T12:18:02.847Z,21.75
2018-03-01T12:20:33.952Z,21.08
2018-03-01T12:23:04.942Z,21.76
2018-03-01T12:25:35.972Z,22.41
2018-03-01T12:28:06.954Z,22.22
2018-03-01T12:30:37.964Z,20.98
2018-03-01T12:33:08.998Z,20.52
2018-03-01T12:35:40.051Z,20.73
2018-03-01T12:38:11.044Z,20.96
2018-03-01T12:40:42.057Z,22.19
2018-03-01T12:43:13.065Z,22.89
2018-03-01T12:45:44.051Z,23.41
2018-03-01T12:48:15.074Z,23.47
2018-03-01T12:50:46.096Z,23.48
2018-03-01T12:53:17.131Z,23.81
2018-03-01T12:55:48.194Z,24.20
2018-03-01T12:58:19.208Z,24.37
2018-03-01T13:00:50.286Z,25.41
2018-03-01T13:03:21.294Z,25.43
2018-03-01T13:05:52.313Z,25.90
2018-03-01T13:08:23.358Z,26.50
2018-03-01T13:10:54.382Z,26.51
2018-03-01T13:13:25.435Z,26.76
2018-03-01T13:15:56.476Z,27.51
2018-03-01T13:18:27.537Z,27.48
2018-03-01T13:20:58.551Z,28.15
2018-03-01T13:23:29.571Z,27.74
2018-03-01T13:26:00.578Z,28.35
2018-03-01T13:28:31.609Z,27.90
2018-03-01T13:31:05.564Z,27.99
2018-03-01T13:33:48.439Z,28.22
2018-03-01T13:36:19.453Z,28.51
2018-03-01T13:38:50.490Z,27.90
2018-03-01T13:41:21.567Z,28.38
2018-03-01T13:43:52.629Z,27.27
2018-03-01T13:46:26.435Z,28.24
2018-03-01T13:48:57.451Z,28.13
2018-03-01T13:51:28.469Z,28.33
2018-03-01T13:53:59.495Z,27.41
2018-03-01T13:56:30.532Z,27.82
2018-03-01T13:59:01.554Z,27.86
2018-03-01T14:01:32.594Z,27.31
2018-03-01T14:04:03.584Z,27.84
2018-03-01T14:06:42.656Z,28.15
2018-03-01T14:09:13.639Z,27.68
2018-03-01T14:11:44.620Z,28.30
2018-03-01T14:14:15.681Z,27.68
2018-03-01T14:16:47.486Z,27.84
2018-03-01T14:19:24.487Z,28.30
2018-03-01T14:25:01.629Z,29.61
2018-03-01T14:27:33.556Z,30.09
2018-03-01T14:30:04.617Z,29.86
2018-03-01T14:32:35.630Z,29.75
2018-03-01T14:35:06.650Z,29.83
2018-03-01T14:37:37.658Z,29.88
2018-03-01T14:40:08.652Z,29.57
2018-03-01T14:42:39.623Z,29.25
2018-03-01T14:45:10.667Z,29.27
2018-03-01T14:47:41.645Z,28.96
2018-03-01T14:50:12.654Z,28.20
2018-03-01T14:52:43.667Z,28.67
2018-03-01T14:55:14.724Z,29.16
2018-03-01T14:57:45.733Z,29.69
2018-03-01T15:00:16.735Z,29.75
2018-03-01T15:02:47.750Z,29.65
2018-03-01T15:05:18.751Z,29.45
2018-03-01T15:07:49.742Z,29.76
2018-03-01T15:10:20.784Z,29.96
2018-03-01T15:12:51.785Z,30.48
2018-03-01T15:15:22.758Z,30.21
2018-03-01T15:17:53.747Z,30.65
2018-03-01T15:20:24.775Z,30.30
2018-03-01T15:22:55.769Z,31.04
2018-03-01T15:25:26.738Z,30.95
2018-03-01T15:27:57.718Z,31.00
2018-03-01T15:30:28.735Z,31.79
2018-03-01T15:32:59.703Z,32.42
2018-03-01T15:35:30.724Z,32.32
2018-03-01T15:38:01.735Z,32.30
2018-03-01T15:40:32.708Z,32.76
2018-03-01T15:43:03.752Z,32.95
2018-03-01T15:45:34.690Z,33.17
2018-03-01T15:48:05.709Z,33.97
2018-03-01T15:50:36.700Z,33.84
2018-03-01T15:53:07.726Z,33.09
2018-03-01T15:55:38.756Z,33.80
2018-03-01T15:58:09.692Z,34.00
2018-03-01T16:00:40.772Z,34.16
2018-03-01T16:03:11.677Z,34.27
2018-03-01T16:05:42.657Z,34.10
2018-03-01T16:08:13.641Z,34.62
2018-03-01T16:10:44.656Z,34.76
2018-03-01T16:13:15.664Z,34.71
2018-03-01T16:15:46.672Z,34.77
2018-03-01T16:18:17.647Z,35.33
2018-03-01T16:20:48.656Z,35.76
2018-03-01T16:23:19.643Z,35.64
2018-03-01T16:25:50.584Z,35.64
2018-03-01T16:28:21.605Z,36.64
2018-03-01T16:30:52.588Z,37.06
2018-03-01T16:33:23.610Z,36.83
2018-03-01T16:35:54.591Z,36.55
2018-03-01T16:38:25.566Z,36.73
2018-03-01T16:40:56.564Z,37.06
2018-03-01T16:43:27.533Z,37.11
2018-03-01T16:45:58.581Z,37.91
2018-03-01T16:48:29.554Z,38.19
2018-03-01T16:51:00.535Z,37.86
2018-03-01T16:53:31.528Z,38.20
2018-03-01T16:56:02.522Z,38.52
2018-03-01T16:58:33.546Z,39.50
2018-03-01T17:03:42.252Z,38.69
2018-03-01T17:06:13.228Z,39.08
2018-03-01T17:08:44.279Z,39.41
2018-03-01T17:11:15.295Z,39.33
2018-03-01T17:13:46.298Z,39.82
2018-03-01T17:16:17.276Z,39.45
2018-03-01T17:21:25.968Z,39.86
2018-03-01T17:23:57.001Z,39.75
2018-03-01T17:26:27.989Z,40.24
2018-03-01T17:28:59.031Z,40.10
2018-03-01T17:31:30.008Z,40.36
2018-03-01T17:34:00.995Z,40.34
2018-03-01T17:36:32.058Z,40.14
2018-03-01T17:39:03.112Z,40.50
2018-03-01T17:41:34.131Z,40.41
2018-03-01T17:44:05.115Z,40.82
2018-03-01T17:46:36.087Z,40.82
2018-03-01T17:49:07.131Z,40.98
2018-03-01T17:51:38.103Z,41.53
2018-03-01T17:54:09.066Z,41.48
2018-03-01T17:56:40.109Z,41.57
2018-03-01T17:59:11.153Z,41.70
2018-03-01T18:01:42.191Z,42.20
2018-03-01T18:04:13.182Z,41.59
2018-03-01T18:06:44.200Z,41.71
2018-03-01T18:09:15.217Z,42.20
2018-03-01T18:11:46.259Z,42.37
2018-03-01T18:14:17.329Z,42.39
2018-03-01T18:16:48.317Z,42.70
2018-03-01T18:19:19.293Z,42.93
2018-03-01T18:21:50.299Z,42.97
2018-03-01T18:24:21.355Z,43.25
2018-03-01T18:26:52.324Z,42.98
2018-03-01T18:29:23.319Z,43.03
2018-03-01T18:31:54.310Z,43.72
2018-03-01T18:34:25.312Z,43.83
2018-03-01T18:36:56.327Z,44.12
2018-03-01T18:39:27.353Z,43.86
2018-03-01T18:41:58.388Z,43.79
2018-03-01T18:44:29.387Z,43.73
2018-03-01T18:47:00.442Z,43.79
2018-03-01T18:49:31.489Z,44.05
2018-03-01T18:52:02.463Z,44.19
2018-03-01T18:54:33.463Z,44.52
2018-03-01T18:57:04.433Z,44.61
2018-03-01T18:59:35.444Z,44.41
2018-03-01T19:02:06.417Z,44.33
2018-03-01T19:04:37.498Z,44.72
2018-03-01T19:07:08.537Z,44.77
2018-03-01T19:09:39.529Z,44.75
2018-03-01T19:12:10.565Z,44.47
2018-03-01T19:14:41.616Z,44.21
2018-03-01T19:17:12.623Z,44.59
2018-03-01T19:19:43.649Z,44.79
2018-03-01T19:22:14.616Z,44.65
2018-03-01T19:24:45.639Z,44.68
2018-03-01T19:27:16.628Z,44.77
2018-03-01T19:29:47.704Z,44.90
2018-03-01T19:32:18.730Z,44.79
2018-03-01T19:34:49.716Z,44.58
2018-03-01T19:37:20.769Z,44.44
2018-03-01T19:39:51.743Z,44.15
2018-03-01T19:42:22.798Z,44.18
2018-03-01T19:44:53.786Z,43.83
2018-03-01T19:47:24.772Z,43.79
2018-03-01T19:49:55.802Z,43.81
2018-03-01T19:52:26.800Z,43.69
2018-03-01T19:54:57.961Z,43.51
2018-03-01T19:57:28.948Z,43.82
2018-03-01T19:59:59.922Z,43.58
2018-03-01T20:02:30.921Z,43.64
2018-03-01T20:05:01.929Z,43.62
2018-03-01T20:07:32.887Z,43.66
2018-03-01T20:10:03.911Z,43.30
2018-03-01T20:12:34.915Z,43.01
2018-03-01T20:15:05.974Z,43.19
2018-03-01T20:17:37.020Z,43.53
2018-03-01T20:20:08.003Z,43.70
2018-03-01T20:22:39.004Z,43.48
2018-03-01T20:25:10.023Z,43.51
2018-03-01T20:27:41.045Z,43.18
2018-03-01T20:30:12.075Z,43.21
2018-03-01T20:32:43.105Z,43.47
2018-03-01T20:35:14.110Z,44.09
2018-03-01T20:37:45.106Z,43.75
2018-03-01T20:40:16.099Z,43.80
2018-03-01T20:42:47.081Z,44.13
2018-03-01T20:45:18.099Z,43.75
2018-03-01T20:47:49.077Z,43.59
2018-03-01T20:50:20.094Z,43.35
2018-03-01T20:52:51.107Z,43.13
2018-03-01T20:55:22.158Z,43.65
2018-03-01T20:57:53.173Z,43.98
2018-03-01T21:00:24.211Z,43.67
2018-03-01T21:02:55.216Z,43.51
2018-03-01T21:05:26.255Z,43.75
2018-03-01T21:07:57.241Z,43.81
2018-03-01T21:10:28.256Z,43.55
2018-03-01T21:12:59.251Z,43.34
2018-03-01T21:15:30.313Z,43.39
2018-03-01T21:18:01.327Z,43.30
2018-03-01T21:20:32.337Z,43.38
2018-03-01T21:23:03.304Z,43.29
2018-03-01T21:25:34.296Z,43.19
2018-03-01T21:28:05.293Z,43.11
2018-03-01T21:30:36.261Z,43.19
2018-03-01T21:33:07.313Z,43.59
2018-03-01T21:35:38.256Z,43.76
2018-03-01T21:38:09.266Z,43.97
2018-03-01T21:40:40.322Z,43.11
2018-03-01T21:43:11.327Z,42.71
2018-03-01T21:45:42.296Z,41.84
2018-03-01T21:48:13.305Z,42.01
2018-03-01T21:50:44.354Z,41.55
2018-03-01T21:53:15.332Z,41.74
2018-03-01T21:55:46.863Z,42.10
2018-03-01T21:58:17.901Z,41.96
2018-03-01T22:00:48.916Z,42.23
2018-03-01T22:03:19.863Z,42.49
2018-03-01T22:05:50.840Z,42.48
2018-03-01T22:08:21.856Z,43.02
2018-03-01T22:10:52.857Z,43.93
2018-03-01T22:13:23.890Z,43.95
2018-03-01T22:15:54.938Z,44.11
2018-03-01T22:18:25.905Z,44.55
2018-03-01T22:20:56.894Z,44.41
2018-03-01T22:23:27.877Z,44.92
2018-03-01T22:25:58.857Z,44.65
2018-03-01T22:28:29.877Z,44.83
2018-03-01T22:31:00.944Z,45.29
2018-03-01T22:33:31.934Z,45.50
2018-03-01T22:36:02.944Z,46.20
2018-03-01T22:38:33.951Z,46.01
2018-03-01T22:41:04.973Z,46.48
2018-03-01T22:43:35.962Z,46.19
2018-03-01T22:46:07.011Z,46.21
2018-03-01T22:48:37.997Z,46.34
2018-03-01T22:51:08.970Z,46.51
2018-03-01T22:53:39.947Z,46.90
2018-03-01T22:56:10.967Z,47.01
2018-03-01T22:58:42.005Z,47.02
2018-03-01T23:01:13.053Z,47.40
2018-03-01T23:03:44.056Z,47.81
2018-03-01T23:06:15.065Z,47.72
2018-03-01T23:08:46.049Z,47.81
2018-03-01T23:11:17.055Z,47.60
2018-03-01T23:13:48.023Z,47.92
2018-03-01T23:16:19.045Z,48.64
2018-03-01T23:18:50.059Z,48.54
2018-03-01T23:21:21.018Z,48.46
2018-03-01T23:23:52.045Z,48.94
2018-03-01T23:26:23.027Z,48.79
2018-03-01T23:28:54.061Z,49.21
2018-03-01T23:31:25.020Z,48.87
2018-03-01T23:33:55.999Z,48.75
2018-03-01T23:36:27.017Z,48.79
2018-03-01T23:38:57.975Z,49.01
2018-03-01T23:41:28.978Z,49.63
2018-03-01T23:44:00.028Z,49.14
2018-03-01T23:46:31.260Z,49.98
2018-03-01T23:49:02.337Z,50.01
2018-03-01T23:51:33.362Z,49.95
2018-03-01T23:54:04.375Z,49.88
2018-03-01T23:56:35.393Z,49.88
2018-03-01T23:59:06.414Z,49.91
